sensor_id;sensor_type;location;lat;lon;timestamp;pressure;altitude;pressure_sealevel;temperature;humidity
48089;BME280;33867;50.314;7.802;2022-11-15T00:03:22;99959.94;;;7.73;nan
48089;BME280;33867;50.314;7.802;2022-11-15T00:07:00;99952.75;;;7.73;nan
48089;BME280;33867;50.314;7.802;2022-11-15T00:10:39;99953.22;;;7.88;nan
48089;BME280;33867;50.314;7.802;2022-11-15T00:14:16;99942.44;;;7.69;nan
48089;BME280;33867;50.314;7.802;2022-11-15T00:17:54;99945.44;;;7.75;nan
48089;BME280;33867;50.314;7.802;2022-11-15T00:21:32;99948.28;;;7.93;nan
48089;BME280;33867;50.314;7.802;2022-11-15T00:25:09;99947.59;;;7.81;nan
48089;BME280;33867;50.314;7.802;2022-11-15T00:28:47;99955.72;;;7.80;nan
48089;BME280;33867;50.314;7.802;2022-11-15T00:32:25;99939.19;;;8.05;nan
48089;BME280;33867;50.314;7.802;2022-11-15T00:36:05;99937.47;;;7.64;nan
48089;BME280;33867;50.314;7.802;2022-11-15T00:39:44;99947.50;;;7.62;nan
48089;BME280;33867;50.314;7.802;2022-11-15T00:43:21;99954.38;;;7.55;nan
48089;BME280;33867;50.314;7.802;2022-11-15T00:46:59;99944.16;;;7.79;nan
48089;BME280;33867;50.314;7.802;2022-11-15T00:50:37;99945.28;;;7.77;nan
48089;BME280;33867;50.314;7.802;2022-11-15T00:54:15;99945.59;;;7.83;nan
48089;BME280;33867;50.314;7.802;2022-11-15T00:57:53;99949.47;;;7.60;nan
48089;BME280;33867;50.314;7.802;2022-11-15T01:01:30;99941.00;;;7.65;nan
48089;BME280;33867;50.314;7.802;2022-11-15T01:05:08;99950.03;;;7.63;nan
48089;BME280;33867;50.314;7.802;2022-11-15T01:08:46;99956.94;;;7.66;nan
48089;BME280;33867;50.314;7.802;2022-11-15T01:12:24;99956.78;;;7.58;nan
48089;BME280;33867;50.314;7.802;2022-11-15T01:16:10;99940.06;;;7.45;nan
48089;BME280;33867;50.314;7.802;2022-11-15T01:19:49;99934.47;;;7.48;nan
48089;BME280;33867;50.314;7.802;2022-11-15T01:23:28;99933.97;;;7.63;nan
48089;BME280;33867;50.314;7.802;2022-11-15T01:27:06;99934.53;;;7.67;nan
48089;BME280;33867;50.314;7.802;2022-11-15T01:30:44;99935.19;;;7.50;nan
48089;BME280;33867;50.314;7.802;2022-11-15T01:38:32;99936.50;;;7.65;nan
48089;BME280;33867;50.314;7.802;2022-11-15T01:42:14;99933.22;;;8.02;nan
48089;BME280;33867;50.314;7.802;2022-11-15T01:46:02;99923.94;;;8.25;nan
48089;BME280;33867;50.314;7.802;2022-11-15T01:49:50;99922.38;;;8.13;nan
48089;BME280;33867;50.314;7.802;2022-11-15T01:53:29;99904.25;;;8.45;nan
48089;BME280;33867;50.314;7.802;2022-11-15T01:57:10;99901.69;;;8.34;nan
48089;BME280;33867;50.314;7.802;2022-11-15T02:00:49;99909.53;;;8.16;nan
48089;BME280;33867;50.314;7.802;2022-11-15T02:04:29;99908.91;;;8.43;nan
48089;BME280;33867;50.314;7.802;2022-11-15T02:08:09;99906.06;;;8.35;nan
48089;BME280;33867;50.314;7.802;2022-11-15T02:11:57;99916.34;;;8.30;nan
48089;BME280;33867;50.314;7.802;2022-11-15T02:15:43;99914.13;;;8.55;nan
48089;BME280;33867;50.314;7.802;2022-11-15T02:35:06;99878.66;;;8.51;nan
48089;BME280;33867;50.314;7.802;2022-11-15T02:42:57;99884.88;;;8.71;nan
48089;BME280;33867;50.314;7.802;2022-11-15T02:47:03;99870.91;;;8.67;nan
48089;BME280;33867;50.314;7.802;2022-11-15T02:50:51;99869.47;;;8.73;nan
48089;BME280;33867;50.314;7.802;2022-11-15T02:54:31;99873.59;;;8.58;nan
48089;BME280;33867;50.314;7.802;2022-11-15T02:58:44;99855.81;;;8.57;nan
48089;BME280;33867;50.314;7.802;2022-11-15T03:06:04;99859.19;;;8.39;nan
48089;BME280;33867;50.314;7.802;2022-11-15T03:10:06;99858.50;;;8.47;nan
48089;BME280;33867;50.314;7.802;2022-11-15T03:14:29;99847.19;;;8.53;nan
48089;BME280;33867;50.314;7.802;2022-11-15T03:18:15;99840.06;;;8.81;nan
48089;BME280;33867;50.314;7.802;2022-11-15T03:21:59;99852.38;;;9.21;nan
48089;BME280;33867;50.314;7.802;2022-11-15T03:25:46;99837.34;;;9.37;nan
48089;BME280;33867;50.314;7.802;2022-11-15T03:29:32;99838.88;;;9.67;nan
48089;BME280;33867;50.314;7.802;2022-11-15T03:33:38;99842.97;;;9.72;nan
48089;BME280;33867;50.314;7.802;2022-11-15T03:37:17;99843.50;;;9.93;nan
48089;BME280;33867;50.314;7.802;2022-11-15T03:41:00;99830.94;;;10.11;nan
48089;BME280;33867;50.314;7.802;2022-11-15T03:44:55;99844.69;;;10.08;nan
48089;BME280;33867;50.314;7.802;2022-11-15T03:48:39;99846.41;;;9.82;nan
48089;BME280;33867;50.314;7.802;2022-11-15T03:52:20;99846.81;;;9.87;nan
48089;BME280;33867;50.314;7.802;2022-11-15T03:55:58;99856.25;;;9.91;nan
48089;BME280;33867;50.314;7.802;2022-11-15T03:59:36;99848.34;;;9.89;nan
48089;BME280;33867;50.314;7.802;2022-11-15T04:03:14;99850.28;;;9.97;nan
48089;BME280;33867;50.314;7.802;2022-11-15T04:06:52;99841.75;;;10.02;nan
48089;BME280;33867;50.314;7.802;2022-11-15T04:10:30;99842.13;;;9.89;nan
48089;BME280;33867;50.314;7.802;2022-11-15T04:14:07;99838.53;;;10.16;nan
48089;BME280;33867;50.314;7.802;2022-11-15T04:17:47;99839.22;;;10.00;nan
48089;BME280;33867;50.314;7.802;2022-11-15T04:21:26;99832.59;;;9.77;nan
48089;BME280;33867;50.314;7.802;2022-11-15T04:25:09;99851.03;;;9.72;nan
48089;BME280;33867;50.314;7.802;2022-11-15T04:28:47;99840.03;;;9.37;nan
48089;BME280;33867;50.314;7.802;2022-11-15T04:32:44;99832.66;;;9.12;nan
48089;BME280;33867;50.314;7.802;2022-11-15T04:36:22;99842.59;;;8.92;nan
48089;BME280;33867;50.314;7.802;2022-11-15T04:40:36;99847.16;;;8.72;nan
48089;BME280;33867;50.314;7.802;2022-11-15T04:44:15;99832.50;;;8.47;nan
48089;BME280;33867;50.314;7.802;2022-11-15T04:47:54;99829.69;;;8.39;nan
48089;BME280;33867;50.314;7.802;2022-11-15T04:51:32;99832.63;;;8.27;nan
48089;BME280;33867;50.314;7.802;2022-11-15T04:55:10;99832.78;;;8.06;nan
48089;BME280;33867;50.314;7.802;2022-11-15T04:58:49;99843.75;;;8.03;nan
48089;BME280;33867;50.314;7.802;2022-11-15T05:02:27;99833.63;;;7.97;nan
48089;BME280;33867;50.314;7.802;2022-11-15T05:06:24;99835.44;;;7.86;nan
48089;BME280;33867;50.314;7.802;2022-11-15T05:10:03;99835.31;;;7.98;nan
48089;BME280;33867;50.314;7.802;2022-11-15T05:13:41;99829.22;;;8.15;nan
48089;BME280;33867;50.314;7.802;2022-11-15T05:17:19;99830.81;;;8.17;nan
48089;BME280;33867;50.314;7.802;2022-11-15T05:21:05;99830.94;;;7.97;nan
48089;BME280;33867;50.314;7.802;2022-11-15T05:24:43;99847.97;;;7.76;nan
48089;BME280;33867;50.314;7.802;2022-11-15T05:28:21;99842.31;;;7.79;nan
48089;BME280;33867;50.314;7.802;2022-11-15T05:31:59;99839.09;;;7.85;nan
48089;BME280;33867;50.314;7.802;2022-11-15T05:35:42;99831.06;;;8.05;nan
48089;BME280;33867;50.314;7.802;2022-11-15T05:39:23;99840.25;;;8.02;nan
48089;BME280;33867;50.314;7.802;2022-11-15T05:43:02;99842.47;;;7.78;nan
48089;BME280;33867;50.314;7.802;2022-11-15T05:46:42;99834.69;;;7.65;nan
48089;BME280;33867;50.314;7.802;2022-11-15T05:50:20;99834.13;;;7.81;nan
48089;BME280;33867;50.314;7.802;2022-11-15T05:53:59;99827.38;;;7.86;nan
48089;BME280;33867;50.314;7.802;2022-11-15T05:57:38;99846.16;;;7.86;nan
48089;BME280;33867;50.314;7.802;2022-11-15T06:01:16;99846.69;;;7.80;nan
48089;BME280;33867;50.314;7.802;2022-11-15T06:04:54;99834.00;;;7.92;nan
48089;BME280;33867;50.314;7.802;2022-11-15T06:08:32;99842.56;;;7.57;nan
48089;BME280;33867;50.314;7.802;2022-11-15T06:12:10;99840.06;;;7.75;nan
48089;BME280;33867;50.314;7.802;2022-11-15T06:15:48;99847.91;;;7.57;nan
48089;BME280;33867;50.314;7.802;2022-11-15T06:19:26;99858.72;;;7.46;nan
48089;BME280;33867;50.314;7.802;2022-11-15T06:23:04;99868.28;;;7.79;nan
48089;BME280;33867;50.314;7.802;2022-11-15T06:26:42;99871.91;;;7.68;nan
48089;BME280;33867;50.314;7.802;2022-11-15T06:30:21;99863.13;;;7.47;nan
48089;BME280;33867;50.314;7.802;2022-11-15T06:33:58;99864.31;;;7.73;nan
48089;BME280;33867;50.314;7.802;2022-11-15T06:37:36;99866.91;;;7.84;nan
48089;BME280;33867;50.314;7.802;2022-11-15T06:41:14;99858.84;;;8.04;nan
48089;BME280;33867;50.314;7.802;2022-11-15T06:44:52;99866.34;;;8.00;nan
48089;BME280;33867;50.314;7.802;2022-11-15T06:48:31;99870.84;;;8.00;nan
48089;BME280;33867;50.314;7.802;2022-11-15T06:52:10;99873.28;;;8.12;nan
48089;BME280;33867;50.314;7.802;2022-11-15T06:55:48;99873.53;;;8.00;nan
48089;BME280;33867;50.314;7.802;2022-11-15T06:59:26;99868.75;;;8.23;nan
48089;BME280;33867;50.314;7.802;2022-11-15T07:03:03;99873.81;;;8.16;nan
48089;BME280;33867;50.314;7.802;2022-11-15T07:06:42;99868.91;;;8.21;nan
48089;BME280;33867;50.314;7.802;2022-11-15T07:10:20;99868.81;;;8.42;nan
48089;BME280;33867;50.314;7.802;2022-11-15T07:13:59;99866.25;;;8.40;nan
48089;BME280;33867;50.314;7.802;2022-11-15T07:17:37;99874.88;;;8.54;nan
48089;BME280;33867;50.314;7.802;2022-11-15T07:21:15;99874.28;;;8.60;nan
48089;BME280;33867;50.314;7.802;2022-11-15T07:24:53;99871.06;;;8.66;nan
48089;BME280;33867;50.314;7.802;2022-11-15T07:28:32;99868.91;;;8.69;nan
48089;BME280;33867;50.314;7.802;2022-11-15T07:32:10;99876.97;;;8.60;nan
48089;BME280;33867;50.314;7.802;2022-11-15T07:35:48;99867.78;;;8.72;nan
48089;BME280;33867;50.314;7.802;2022-11-15T07:39:26;99871.31;;;8.72;nan
48089;BME280;33867;50.314;7.802;2022-11-15T07:43:06;99866.06;;;8.81;nan
48089;BME280;33867;50.314;7.802;2022-11-15T07:46:46;99869.13;;;9.05;nan
48089;BME280;33867;50.314;7.802;2022-11-15T07:50:25;99876.53;;;8.74;nan
48089;BME280;33867;50.314;7.802;2022-11-15T07:54:03;99877.34;;;9.03;nan
48089;BME280;33867;50.314;7.802;2022-11-15T07:57:41;99876.72;;;9.09;nan
48089;BME280;33867;50.314;7.802;2022-11-15T08:01:19;99870.84;;;8.96;nan
48089;BME280;33867;50.314;7.802;2022-11-15T08:04:53;99862.59;;;9.07;nan
48089;BME280;33867;50.314;7.802;2022-11-15T08:08:31;99864.59;;;9.05;nan
48089;BME280;33867;50.314;7.802;2022-11-15T08:12:09;99865.53;;;9.24;nan
48089;BME280;33867;50.314;7.802;2022-11-15T08:15:50;99861.25;;;9.31;nan
48089;BME280;33867;50.314;7.802;2022-11-15T08:19:28;99860.50;;;9.48;nan
48089;BME280;33867;50.314;7.802;2022-11-15T08:23:11;99856.81;;;9.49;nan
48089;BME280;33867;50.314;7.802;2022-11-15T08:26:50;99850.44;;;9.50;nan
48089;BME280;33867;50.314;7.802;2022-11-15T08:30:28;99847.97;;;9.57;nan
48089;BME280;33867;50.314;7.802;2022-11-15T08:34:06;99852.91;;;9.61;nan
48089;BME280;33867;50.314;7.802;2022-11-15T08:37:44;99863.50;;;9.63;nan
48089;BME280;33867;50.314;7.802;2022-11-15T08:41:35;99850.78;;;9.37;nan
48089;BME280;33867;50.314;7.802;2022-11-15T08:45:15;99844.97;;;9.32;nan
48089;BME280;33867;50.314;7.802;2022-11-15T08:48:53;99842.69;;;9.65;nan
48089;BME280;33867;50.314;7.802;2022-11-15T08:52:31;99853.34;;;9.84;nan
48089;BME280;33867;50.314;7.802;2022-11-15T08:56:11;99846.72;;;9.79;nan
48089;BME280;33867;50.314;7.802;2022-11-15T08:59:50;99847.28;;;10.00;nan
48089;BME280;33867;50.314;7.802;2022-11-15T09:03:29;99852.03;;;9.88;nan
48089;BME280;33867;50.314;7.802;2022-11-15T09:07:08;99832.47;;;9.96;nan
48089;BME280;33867;50.314;7.802;2022-11-15T09:10:45;99830.84;;;10.21;nan
48089;BME280;33867;50.314;7.802;2022-11-15T09:14:24;99833.41;;;10.40;nan
48089;BME280;33867;50.314;7.802;2022-11-15T09:18:02;99827.13;;;10.32;nan
48089;BME280;33867;50.314;7.802;2022-11-15T09:21:40;99826.00;;;10.60;nan
48089;BME280;33867;50.314;7.802;2022-11-15T09:25:17;99824.22;;;10.15;nan
48089;BME280;33867;50.314;7.802;2022-11-15T09:28:55;99818.00;;;10.68;nan
48089;BME280;33867;50.314;7.802;2022-11-15T09:32:33;99824.22;;;10.69;nan
48089;BME280;33867;50.314;7.802;2022-11-15T09:36:11;99816.56;;;10.56;nan
48089;BME280;33867;50.314;7.802;2022-11-15T09:39:49;99820.88;;;11.01;nan
48089;BME280;33867;50.314;7.802;2022-11-15T09:47:41;99822.19;;;10.97;nan
48089;BME280;33867;50.314;7.802;2022-11-15T09:51:39;99814.72;;;10.82;nan
48089;BME280;33867;50.314;7.802;2022-11-15T09:55:07;99814.66;;;11.34;nan
48089;BME280;33867;50.314;7.802;2022-11-15T09:58:46;99805.22;;;11.73;nan
48089;BME280;33867;50.314;7.802;2022-11-15T10:05:47;99806.00;;;11.65;nan
48089;BME280;33867;50.314;7.802;2022-11-15T10:09:17;99790.13;;;11.96;nan
48089;BME280;33867;50.314;7.802;2022-11-15T10:12:39;99785.19;;;11.83;nan
48089;BME280;33867;50.314;7.802;2022-11-15T10:19:52;99765.34;;;12.25;nan
48089;BME280;33867;50.314;7.802;2022-11-15T10:23:17;99756.56;;;12.23;nan
48089;BME280;33867;50.314;7.802;2022-11-15T10:26:37;99762.97;;;12.14;nan
48089;BME280;33867;50.314;7.802;2022-11-15T10:29:56;99756.03;;;12.27;nan
48089;BME280;33867;50.314;7.802;2022-11-15T10:36:59;99729.47;;;12.80;nan
48089;BME280;33867;50.314;7.802;2022-11-15T10:40:22;99726.63;;;12.73;nan
48089;BME280;33867;50.314;7.802;2022-11-15T10:43:42;99724.13;;;13.11;nan
48089;BME280;33867;50.314;7.802;2022-11-15T10:47:20;99719.34;;;13.29;nan
48089;BME280;33867;50.314;7.802;2022-11-15T10:50:44;99708.47;;;12.98;nan
48089;BME280;33867;50.314;7.802;2022-11-15T10:54:06;99719.56;;;13.20;nan
48089;BME280;33867;50.314;7.802;2022-11-15T10:57:31;99702.59;;;13.34;nan
48089;BME280;33867;50.314;7.802;2022-11-15T11:00:53;99691.19;;;13.46;nan
48089;BME280;33867;50.314;7.802;2022-11-15T11:04:12;99682.06;;;13.48;nan
48089;BME280;33867;50.314;7.802;2022-11-15T11:07:34;99675.63;;;13.71;nan
48089;BME280;33867;50.314;7.802;2022-11-15T11:11:01;99671.38;;;14.00;nan
48089;BME280;33867;50.314;7.802;2022-11-15T11:14:30;99667.03;;;13.91;nan
48089;BME280;33867;50.314;7.802;2022-11-15T11:18:05;99668.72;;;13.92;nan
48089;BME280;33867;50.314;7.802;2022-11-15T11:25:15;99664.06;;;13.32;nan
48089;BME280;33867;50.314;7.802;2022-11-15T11:28:59;99652.88;;;13.04;nan
48089;BME280;33867;50.314;7.802;2022-11-15T11:43:36;99634.91;;;14.11;nan
48089;BME280;33867;50.314;7.802;2022-11-15T11:50:38;99633.44;;;13.85;nan
48089;BME280;33867;50.314;7.802;2022-11-15T11:54:03;99615.09;;;13.72;nan
48089;BME280;33867;50.314;7.802;2022-11-15T11:57:33;99616.34;;;13.85;nan
48089;BME280;33867;50.314;7.802;2022-11-15T12:00:57;99619.09;;;13.62;nan
48089;BME280;33867;50.314;7.802;2022-11-15T12:04:23;99626.50;;;13.37;nan
48089;BME280;33867;50.314;7.802;2022-11-15T12:07:46;99621.59;;;13.40;nan
48089;BME280;33867;50.314;7.802;2022-11-15T12:11:17;99624.91;;;13.73;nan
48089;BME280;33867;50.314;7.802;2022-11-15T12:14:50;99617.88;;;13.41;nan
48089;BME280;33867;50.314;7.802;2022-11-15T12:18:14;99607.28;;;13.78;nan
48089;BME280;33867;50.314;7.802;2022-11-15T12:25:08;99601.41;;;13.51;nan
48089;BME280;33867;50.314;7.802;2022-11-15T12:28:54;99597.78;;;13.59;nan
48089;BME280;33867;50.314;7.802;2022-11-15T12:32:30;99598.22;;;13.48;nan
48089;BME280;33867;50.314;7.802;2022-11-15T12:35:58;99577.78;;;13.22;nan
48089;BME280;33867;50.314;7.802;2022-11-15T12:39:18;99589.63;;;13.21;nan
48089;BME280;33867;50.314;7.802;2022-11-15T12:42:43;99575.47;;;13.11;nan
48089;BME280;33867;50.314;7.802;2022-11-15T12:49:49;99586.94;;;13.13;nan
48089;BME280;33867;50.314;7.802;2022-11-15T13:04:13;99556.94;;;13.31;nan
48089;BME280;33867;50.314;7.802;2022-11-15T13:10:54;99544.63;;;13.51;nan
48089;BME280;33867;50.314;7.802;2022-11-15T13:17:58;99529.75;;;13.85;nan
48089;BME280;33867;50.314;7.802;2022-11-15T13:21:23;99527.66;;;13.57;nan
48089;BME280;33867;50.314;7.802;2022-11-15T13:25:02;99518.34;;;13.37;nan
48089;BME280;33867;50.314;7.802;2022-11-15T13:28:43;99523.47;;;13.32;nan
48089;BME280;33867;50.314;7.802;2022-11-15T13:32:03;99521.81;;;13.31;nan
48089;BME280;33867;50.314;7.802;2022-11-15T13:35:28;99505.63;;;13.45;nan
48089;BME280;33867;50.314;7.802;2022-11-15T13:39:00;99504.22;;;13.50;nan
48089;BME280;33867;50.314;7.802;2022-11-15T13:42:20;99503.13;;;13.21;nan
48089;BME280;33867;50.314;7.802;2022-11-15T13:45:40;99489.63;;;13.36;nan
48089;BME280;33867;50.314;7.802;2022-11-15T13:49:03;99485.41;;;13.56;nan
48089;BME280;33867;50.314;7.802;2022-11-15T13:52:28;99479.81;;;13.58;nan
48089;BME280;33867;50.314;7.802;2022-11-15T13:55:50;99471.81;;;13.64;nan
48089;BME280;33867;50.314;7.802;2022-11-15T13:59:15;99479.72;;;13.66;nan
48089;BME280;33867;50.314;7.802;2022-11-15T14:02:36;99473.41;;;13.73;nan
48089;BME280;33867;50.314;7.802;2022-11-15T14:06:13;99471.09;;;13.33;nan
48089;BME280;33867;50.314;7.802;2022-11-15T14:09:38;99458.13;;;13.28;nan
48089;BME280;33867;50.314;7.802;2022-11-15T14:12:58;99457.09;;;13.06;nan
48089;BME280;33867;50.314;7.802;2022-11-15T14:16:20;99440.13;;;13.12;nan
48089;BME280;33867;50.314;7.802;2022-11-15T14:19:40;99443.84;;;13.20;nan
48089;BME280;33867;50.314;7.802;2022-11-15T14:23:43;99424.47;;;13.08;nan
48089;BME280;33867;50.314;7.802;2022-11-15T14:26:42;99414.94;;;12.97;nan
48089;BME280;33867;50.314;7.802;2022-11-15T14:30:02;99414.34;;;12.87;nan
48089;BME280;33867;50.314;7.802;2022-11-15T14:33:33;99410.53;;;12.81;nan
48089;BME280;33867;50.314;7.802;2022-11-15T14:36:52;99410.03;;;12.78;nan
48089;BME280;33867;50.314;7.802;2022-11-15T14:40:14;99399.22;;;12.78;nan
48089;BME280;33867;50.314;7.802;2022-11-15T14:43:33;99387.94;;;12.74;nan
48089;BME280;33867;50.314;7.802;2022-11-15T14:46:52;99385.66;;;12.86;nan
48089;BME280;33867;50.314;7.802;2022-11-15T14:50:19;99388.53;;;12.84;nan
48089;BME280;33867;50.314;7.802;2022-11-15T14:53:40;99380.72;;;12.89;nan
48089;BME280;33867;50.314;7.802;2022-11-15T14:56:59;99375.94;;;12.77;nan
48089;BME280;33867;50.314;7.802;2022-11-15T15:00:19;99377.28;;;12.58;nan
48089;BME280;33867;50.314;7.802;2022-11-15T15:03:38;99364.81;;;12.57;nan
48089;BME280;33867;50.314;7.802;2022-11-15T15:06:57;99368.53;;;12.56;nan
48089;BME280;33867;50.314;7.802;2022-11-15T15:10:16;99361.03;;;12.43;nan
48089;BME280;33867;50.314;7.802;2022-11-15T15:13:35;99358.50;;;12.42;nan
48089;BME280;33867;50.314;7.802;2022-11-15T15:16:54;99353.09;;;12.65;nan
48089;BME280;33867;50.314;7.802;2022-11-15T15:20:14;99359.59;;;12.55;nan
48089;BME280;33867;50.314;7.802;2022-11-15T15:23:33;99349.13;;;12.29;nan
48089;BME280;33867;50.314;7.802;2022-11-15T15:26:54;99346.31;;;12.23;nan
48089;BME280;33867;50.314;7.802;2022-11-15T15:30:13;99343.91;;;12.28;nan
48089;BME280;33867;50.314;7.802;2022-11-15T15:33:32;99340.31;;;12.36;nan
48089;BME280;33867;50.314;7.802;2022-11-15T15:37:25;99343.03;;;12.36;nan
48089;BME280;33867;50.314;7.802;2022-11-15T15:40:44;99342.97;;;12.21;nan
48089;BME280;33867;50.314;7.802;2022-11-15T15:44:03;99342.66;;;12.39;nan
48089;BME280;33867;50.314;7.802;2022-11-15T15:47:23;99342.41;;;12.03;nan
48089;BME280;33867;50.314;7.802;2022-11-15T15:50:42;99339.47;;;12.12;nan
48089;BME280;33867;50.314;7.802;2022-11-15T15:54:01;99333.31;;;11.95;nan
48089;BME280;33867;50.314;7.802;2022-11-15T15:57:20;99337.53;;;11.98;nan
48089;BME280;33867;50.314;7.802;2022-11-15T16:00:40;99333.19;;;11.89;nan
48089;BME280;33867;50.314;7.802;2022-11-15T16:03:59;99326.59;;;11.91;nan
48089;BME280;33867;50.314;7.802;2022-11-15T16:07:21;99310.56;;;11.98;nan
48089;BME280;33867;50.314;7.802;2022-11-15T16:10:45;99316.69;;;12.15;nan
48089;BME280;33867;50.314;7.802;2022-11-15T16:14:04;99314.41;;;12.04;nan
48089;BME280;33867;50.314;7.802;2022-11-15T16:17:35;99304.00;;;11.92;nan
48089;BME280;33867;50.314;7.802;2022-11-15T16:20:56;99298.03;;;11.74;nan
48089;BME280;33867;50.314;7.802;2022-11-15T16:24:15;99301.75;;;11.73;nan
48089;BME280;33867;50.314;7.802;2022-11-15T16:27:34;99299.72;;;11.75;nan
48089;BME280;33867;50.314;7.802;2022-11-15T16:31:02;99305.16;;;11.59;nan
48089;BME280;33867;50.314;7.802;2022-11-15T16:34:21;99298.19;;;11.81;nan
48089;BME280;33867;50.314;7.802;2022-11-15T16:37:41;99298.97;;;11.89;nan
48089;BME280;33867;50.314;7.802;2022-11-15T16:41:02;99295.13;;;11.84;nan
48089;BME280;33867;50.314;7.802;2022-11-15T16:44:22;99283.38;;;11.68;nan
48089;BME280;33867;50.314;7.802;2022-11-15T16:47:42;99289.81;;;11.59;nan
48089;BME280;33867;50.314;7.802;2022-11-15T16:51:01;99279.63;;;11.47;nan
48089;BME280;33867;50.314;7.802;2022-11-15T16:54:22;99275.06;;;11.47;nan
48089;BME280;33867;50.314;7.802;2022-11-15T16:57:41;99282.63;;;11.52;nan
48089;BME280;33867;50.314;7.802;2022-11-15T17:01:00;99276.53;;;11.58;nan
48089;BME280;33867;50.314;7.802;2022-11-15T17:04:20;99271.53;;;11.47;nan
48089;BME280;33867;50.314;7.802;2022-11-15T17:07:40;99275.13;;;11.39;nan
48089;BME280;33867;50.314;7.802;2022-11-15T17:10:59;99275.97;;;11.39;nan
48089;BME280;33867;50.314;7.802;2022-11-15T17:14:19;99277.00;;;11.30;nan
48089;BME280;33867;50.314;7.802;2022-11-15T17:17:38;99270.06;;;11.36;nan
48089;BME280;33867;50.314;7.802;2022-11-15T17:21:02;99270.94;;;11.28;nan
48089;BME280;33867;50.314;7.802;2022-11-15T17:24:21;99266.75;;;11.26;nan
48089;BME280;33867;50.314;7.802;2022-11-15T17:27:40;99255.09;;;11.33;nan
48089;BME280;33867;50.314;7.802;2022-11-15T17:31:00;99264.28;;;11.47;nan
48089;BME280;33867;50.314;7.802;2022-11-15T17:34:19;99260.53;;;11.56;nan
48089;BME280;33867;50.314;7.802;2022-11-15T17:37:38;99248.19;;;11.31;nan
48089;BME280;33867;50.314;7.802;2022-11-15T17:41:05;99235.25;;;11.26;nan
48089;BME280;33867;50.314;7.802;2022-11-15T17:44:25;99239.72;;;11.42;nan
48089;BME280;33867;50.314;7.802;2022-11-15T17:47:44;99239.69;;;11.50;nan
48089;BME280;33867;50.314;7.802;2022-11-15T17:51:05;99239.25;;;11.38;nan
48089;BME280;33867;50.314;7.802;2022-11-15T17:54:24;99237.91;;;11.34;nan
48089;BME280;33867;50.314;7.802;2022-11-15T17:57:43;99239.41;;;11.68;nan
48089;BME280;33867;50.314;7.802;2022-11-15T18:01:17;99232.81;;;11.70;nan
48089;BME280;33867;50.314;7.802;2022-11-15T18:04:36;99236.41;;;11.63;nan
48089;BME280;33867;50.314;7.802;2022-11-15T18:07:55;99233.88;;;11.30;nan
48089;BME280;33867;50.314;7.802;2022-11-15T18:11:19;99228.88;;;11.19;nan
48089;BME280;33867;50.314;7.802;2022-11-15T18:14:39;99225.72;;;11.07;nan
48089;BME280;33867;50.314;7.802;2022-11-15T18:17:58;99223.50;;;11.11;nan
48089;BME280;33867;50.314;7.802;2022-11-15T18:21:22;99231.31;;;10.98;nan
48089;BME280;33867;50.314;7.802;2022-11-15T18:24:41;99226.75;;;10.98;nan
48089;BME280;33867;50.314;7.802;2022-11-15T18:28:01;99225.31;;;11.27;nan
48089;BME280;33867;50.314;7.802;2022-11-15T18:31:23;99222.66;;;11.19;nan
48089;BME280;33867;50.314;7.802;2022-11-15T18:34:42;99220.31;;;11.16;nan
48089;BME280;33867;50.314;7.802;2022-11-15T18:38:01;99220.91;;;10.95;nan
48089;BME280;33867;50.314;7.802;2022-11-15T18:41:21;99217.53;;;10.93;nan
48089;BME280;33867;50.314;7.802;2022-11-15T18:44:43;99212.34;;;11.22;nan
48089;BME280;33867;50.314;7.802;2022-11-15T18:48:02;99212.59;;;11.43;nan
48089;BME280;33867;50.314;7.802;2022-11-15T18:51:24;99207.63;;;11.24;nan
48089;BME280;33867;50.314;7.802;2022-11-15T18:54:43;99205.28;;;11.21;nan
48089;BME280;33867;50.314;7.802;2022-11-15T18:58:02;99199.00;;;10.98;nan
48089;BME280;33867;50.314;7.802;2022-11-15T19:01:26;99208.91;;;11.36;nan
48089;BME280;33867;50.314;7.802;2022-11-15T19:04:45;99195.25;;;11.07;nan
48089;BME280;33867;50.314;7.802;2022-11-15T19:08:04;99189.13;;;11.21;nan
48089;BME280;33867;50.314;7.802;2022-11-15T19:11:31;99190.69;;;11.16;nan
48089;BME280;33867;50.314;7.802;2022-11-15T19:14:51;99181.66;;;11.31;nan
48089;BME280;33867;50.314;7.802;2022-11-15T19:18:10;99184.72;;;11.28;nan
48089;BME280;33867;50.314;7.802;2022-11-15T19:21:30;99175.25;;;11.01;nan
48089;BME280;33867;50.314;7.802;2022-11-15T19:24:52;99184.22;;;10.94;nan
48089;BME280;33867;50.314;7.802;2022-11-15T19:28:11;99177.69;;;10.80;nan
48089;BME280;33867;50.314;7.802;2022-11-15T19:31:31;99168.56;;;10.89;nan
48089;BME280;33867;50.314;7.802;2022-11-15T19:34:50;99167.03;;;10.95;nan
48089;BME280;33867;50.314;7.802;2022-11-15T19:38:10;99165.78;;;11.13;nan
48089;BME280;33867;50.314;7.802;2022-11-15T19:41:30;99165.47;;;11.00;nan
48089;BME280;33867;50.314;7.802;2022-11-15T19:44:49;99164.53;;;10.85;nan
48089;BME280;33867;50.314;7.802;2022-11-15T19:48:08;99161.28;;;10.98;nan
48089;BME280;33867;50.314;7.802;2022-11-15T19:51:28;99155.06;;;10.97;nan
48089;BME280;33867;50.314;7.802;2022-11-15T19:54:49;99161.06;;;11.07;nan
48089;BME280;33867;50.314;7.802;2022-11-15T19:58:08;99166.88;;;10.88;nan
48089;BME280;33867;50.314;7.802;2022-11-15T20:01:29;99158.03;;;10.79;nan
48089;BME280;33867;50.314;7.802;2022-11-15T20:04:48;99151.41;;;10.43;nan
48089;BME280;33867;50.314;7.802;2022-11-15T20:08:07;99145.50;;;10.47;nan
48089;BME280;33867;50.314;7.802;2022-11-15T20:11:26;99142.56;;;10.65;nan
48089;BME280;33867;50.314;7.802;2022-11-15T20:14:45;99136.47;;;10.79;nan
48089;BME280;33867;50.314;7.802;2022-11-15T20:18:04;99135.75;;;10.86;nan
48089;BME280;33867;50.314;7.802;2022-11-15T20:21:23;99134.63;;;10.80;nan
48089;BME280;33867;50.314;7.802;2022-11-15T20:24:42;99129.19;;;10.88;nan
48089;BME280;33867;50.314;7.802;2022-11-15T20:28:01;99121.94;;;10.89;nan
48089;BME280;33867;50.314;7.802;2022-11-15T20:31:20;99123.00;;;10.79;nan
48089;BME280;33867;50.314;7.802;2022-11-15T20:34:39;99119.25;;;10.89;nan
48089;BME280;33867;50.314;7.802;2022-11-15T20:37:58;99116.88;;;10.94;nan
48089;BME280;33867;50.314;7.802;2022-11-15T20:41:17;99115.56;;;10.90;nan
48089;BME280;33867;50.314;7.802;2022-11-15T20:44:36;99109.44;;;11.04;nan